Southwick, United Kingdom
Current Conditions -  °F | °C
As of 3:50 AM on Friday 19 Dec 2014 (Local Time) from EGGD Reporting Station
Moderate Rain Moderate Rain  
Wind Chill: 52°   Ceiling: 200
Heat Index: 52°   Visibility: 0.5mi
Dew Point: 50°   Wind: 22mph
Humidity: 94%   Direction: 250°WSW
Pressure: 29.8"   Gusts: 38mph
Location:  51.3°N, 2.23°W
Report Text: EGGD 190350Z 25019G33KT 0800 R27/P1500 RA FG OVC002 11/10 Q1009
Loading
Personal Weather Stations






























Interactive Weather Map New forecast layout! Learn more

10-Day Weather Forecast

Advertisements
Track Severe Weather on mobile